createdAt,value
2019-05-16T00:00:33.300Z,2.97
2019-05-16T00:03:07.903Z,4.00
2019-05-16T00:05:50.345Z,3.30
2019-05-16T00:08:13.377Z,3.43
2019-05-16T00:10:45.838Z,3.07
2019-05-16T00:13:18.596Z,3.53
2019-05-16T00:15:50.954Z,3.93
2019-05-16T00:18:23.072Z,2.83
2019-05-16T00:20:55.207Z,3.67
2019-05-16T00:23:28.867Z,2.80
2019-05-16T00:26:02.214Z,2.97
2019-05-16T00:28:34.810Z,2.70
2019-05-16T00:31:08.601Z,2.80
2019-05-16T00:33:40.910Z,2.80
2019-05-16T00:36:13.036Z,2.90
2019-05-16T00:38:45.566Z,2.90
2019-05-16T00:41:18.143Z,3.17
2019-05-16T00:43:50.473Z,3.30
2019-05-16T00:46:22.932Z,2.70
2019-05-16T00:48:55.046Z,2.87
2019-05-16T00:51:28.784Z,2.80
2019-05-16T00:54:01.114Z,3.60
2019-05-16T00:56:35.411Z,2.73
2019-05-16T00:59:08.809Z,3.67
2019-05-16T01:01:40.950Z,3.00
2019-05-16T01:04:13.074Z,3.37
2019-05-16T01:06:45.190Z,2.93
2019-05-16T01:09:18.779Z,3.17
2019-05-16T01:11:51.062Z,3.03
2019-05-16T01:14:23.189Z,3.80
2019-05-16T01:16:55.310Z,3.30
2019-05-16T01:19:27.844Z,4.13
2019-05-16T01:22:00.136Z,3.20
2019-05-16T01:24:32.715Z,3.37
2019-05-16T01:27:05.399Z,3.10
2019-05-16T01:29:38.541Z,2.90
2019-05-16T01:32:10.780Z,3.13
2019-05-16T01:34:43.772Z,2.90
2019-05-16T01:37:15.896Z,2.80
2019-05-16T01:39:48.511Z,2.80
2019-05-16T01:42:21.051Z,3.40
2019-05-16T01:44:53.131Z,3.07
2019-05-16T01:47:25.261Z,3.20
2019-05-16T01:49:58.128Z,3.13
2019-05-16T01:52:30.302Z,2.67
2019-05-16T01:55:02.523Z,3.33
2019-05-16T01:57:35.105Z,3.47
2019-05-16T02:00:08.593Z,3.00
2019-05-16T02:02:40.905Z,2.83
2019-05-16T02:05:13.242Z,3.47
2019-05-16T02:07:47.874Z,3.30
2019-05-16T02:10:20.043Z,2.90
2019-05-16T02:12:52.188Z,2.93
2019-05-16T02:15:24.510Z,3.77
2019-05-16T02:17:58.655Z,3.30
2019-05-16T02:20:30.449Z,3.23
2019-05-16T02:23:02.579Z,3.87
2019-05-16T02:25:38.215Z,3.30
2019-05-16T02:28:10.142Z,3.53
2019-05-16T02:30:42.830Z,2.87
2019-05-16T02:33:15.284Z,3.00
2019-05-16T02:35:54.830Z,3.37
2019-05-16T02:38:21.995Z,3.23
2019-05-16T02:40:55.169Z,3.20
2019-05-16T02:43:31.056Z,3.07
2019-05-16T02:46:02.004Z,3.27
2019-05-16T02:48:35.281Z,3.20
2019-05-16T02:51:10.820Z,3.40
2019-05-16T02:53:41.951Z,2.80
2019-05-16T02:56:14.260Z,3.07
2019-05-16T02:58:46.399Z,2.80
2019-05-16T03:01:21.378Z,3.10
2019-05-16T03:03:52.837Z,2.53
2019-05-16T03:06:27.902Z,3.40
2019-05-16T03:09:05.153Z,2.73
2019-05-16T03:11:36.625Z,2.27
2019-05-16T03:14:11.205Z,3.77
2019-05-16T03:16:44.203Z,2.77
2019-05-16T03:19:21.630Z,3.00
2019-05-16T03:21:55.427Z,2.43
2019-05-16T03:24:30.783Z,3.07
2019-05-16T03:27:01.817Z,2.67
2019-05-16T03:29:34.486Z,2.53
2019-05-16T03:32:07.073Z,2.90
2019-05-16T03:34:43.858Z,3.13
2019-05-16T03:37:14.554Z,2.87
2019-05-16T03:39:51.250Z,2.30
2019-05-16T03:42:22.583Z,2.47
2019-05-16T03:44:54.712Z,2.50
2019-05-16T03:47:31.046Z,2.47
2019-05-16T03:50:01.781Z,2.63
2019-05-16T03:52:33.913Z,2.63
2019-05-16T03:55:10.704Z,2.57
2019-05-16T03:57:41.885Z,2.40
2019-05-16T04:00:16.443Z,2.70
2019-05-16T04:02:52.067Z,2.87
2019-05-16T04:05:23.149Z,3.00
2019-05-16T04:08:10.372Z,2.20
2019-05-16T04:10:30.953Z,2.87
2019-05-16T04:13:03.155Z,2.67
2019-05-16T04:15:35.283Z,2.60
2019-05-16T04:18:07.514Z,2.30
2019-05-16T04:20:40.715Z,2.27
2019-05-16T04:23:13.400Z,2.53
2019-05-16T04:25:45.580Z,2.17
2019-05-16T04:28:21.305Z,2.70
2019-05-16T04:30:51.529Z,2.07
2019-05-16T04:33:24.200Z,2.60
2019-05-16T04:35:56.431Z,2.33
2019-05-16T04:38:39.075Z,2.20
2019-05-16T04:41:02.925Z,2.10
2019-05-16T04:43:35.046Z,2.30
2019-05-16T04:46:07.271Z,1.90
2019-05-16T04:48:41.785Z,1.83
2019-05-16T04:51:13.722Z,1.97
2019-05-16T04:53:45.853Z,1.80
2019-05-16T04:56:21.309Z,1.90
2019-05-16T04:58:52.606Z,1.77
2019-05-16T05:01:24.715Z,1.93
2019-05-16T05:04:06.158Z,2.30
2019-05-16T05:06:31.471Z,1.90
2019-05-16T05:09:05.035Z,2.10
2019-05-16T05:11:37.160Z,2.73
2019-05-16T05:14:10.627Z,3.13
2019-05-16T05:16:43.302Z,2.87
2019-05-16T05:19:15.874Z,2.70
2019-05-16T05:21:51.206Z,2.00
2019-05-16T05:24:23.027Z,2.17
2019-05-16T05:26:55.623Z,1.90
2019-05-16T05:29:27.786Z,1.70
2019-05-16T05:32:04.318Z,1.30
2019-05-16T05:34:34.985Z,1.63
2019-05-16T05:37:07.563Z,1.80
2019-05-16T05:39:39.813Z,1.40
2019-05-16T05:42:11.987Z,1.53
2019-05-16T05:44:44.167Z,1.93
2019-05-16T05:47:16.282Z,1.50
2019-05-16T05:49:49.849Z,1.70
2019-05-16T05:52:22.117Z,1.40
2019-05-16T05:54:54.240Z,1.70
2019-05-16T05:57:29.846Z,1.97
2019-05-16T06:00:01.074Z,2.07
2019-05-16T06:02:33.193Z,1.70
2019-05-16T06:05:06.712Z,1.60
2019-05-16T06:07:40.502Z,1.80
2019-05-16T06:10:13.155Z,1.70
2019-05-16T06:12:45.270Z,1.63
2019-05-16T06:15:20.091Z,1.80
2019-05-16T06:17:52.091Z,1.57
2019-05-16T06:20:24.618Z,1.90
2019-05-16T06:22:56.870Z,1.50
2019-05-16T06:25:31.482Z,1.57
2019-05-16T06:28:02.872Z,2.10
2019-05-16T06:30:35.043Z,2.13
2019-05-16T06:33:07.277Z,1.70
2019-05-16T06:35:40.183Z,1.80
2019-05-16T06:38:13.425Z,1.80
2019-05-16T06:40:45.717Z,1.47
2019-05-16T06:43:20.521Z,1.63
2019-05-16T06:45:53.582Z,1.60
2019-05-16T06:48:26.159Z,1.40
2019-05-16T06:51:02.786Z,1.60
2019-05-16T06:53:33.117Z,1.90
2019-05-16T06:56:05.609Z,1.40
2019-05-16T06:58:47.624Z,1.53
2019-05-16T07:01:12.472Z,1.40
2019-05-16T07:03:45.092Z,1.30
2019-05-16T07:06:37.846Z,1.60
2019-05-16T07:08:52.095Z,1.07
2019-05-16T07:11:24.389Z,1.43
2019-05-16T07:13:56.671Z,1.20
2019-05-16T07:16:29.936Z,1.60
2019-05-16T07:19:02.500Z,1.60
2019-05-16T07:21:36.014Z,1.53
2019-05-16T07:24:10.870Z,1.20
2019-05-16T07:26:43.079Z,1.50
2019-05-16T07:29:15.418Z,1.00
2019-05-16T07:31:48.248Z,1.27
2019-05-16T07:34:20.811Z,1.57
2019-05-16T07:36:53.628Z,1.30
2019-05-16T07:39:26.483Z,1.70
2019-05-16T07:41:59.933Z,1.30
2019-05-16T07:44:32.700Z,1.00
2019-05-16T07:47:04.945Z,1.40
2019-05-16T07:49:37.245Z,1.63
2019-05-16T07:52:09.943Z,1.50
2019-05-16T07:54:42.332Z,1.30
2019-05-16T07:57:19.492Z,1.77
2019-05-16T07:59:50.711Z,1.60
2019-05-16T08:02:23.177Z,1.57
2019-05-16T08:04:55.463Z,1.10
2019-05-16T08:07:27.753Z,1.50
2019-05-16T08:10:00.603Z,1.50
2019-05-16T08:12:33.343Z,1.37
2019-05-16T08:15:05.856Z,1.07
2019-05-16T08:17:41.371Z,1.57
2019-05-16T08:20:13.473Z,1.20
2019-05-16T08:22:45.752Z,1.50
2019-05-16T08:25:20.403Z,1.67
2019-05-16T08:27:52.626Z,1.10
2019-05-16T08:30:25.145Z,1.40
2019-05-16T08:33:02.467Z,1.07
2019-05-16T08:35:33.122Z,1.40
2019-05-16T08:38:05.653Z,1.33
2019-05-16T08:41:01.155Z,1.20
2019-05-16T08:43:12.249Z,1.50
2019-05-16T08:45:44.533Z,1.40
2019-05-16T08:48:16.845Z,1.20
2019-05-16T08:53:23.817Z,1.50
2019-05-16T08:55:57.014Z,1.60
2019-05-16T08:58:33.106Z,1.73
2019-05-16T09:01:04.278Z,1.50
2019-05-16T09:03:36.565Z,1.80
2019-05-16T09:06:11.522Z,1.50
2019-05-16T09:08:43.224Z,1.83
2019-05-16T09:10:41.206Z,1.50
2019-05-16T09:11:31.439Z,1.70
2019-05-16T09:13:49.754Z,1.83
2019-05-16T09:16:22.498Z,3.07
2019-05-16T09:18:57.363Z,1.70
2019-05-16T09:21:28.681Z,1.50
2019-05-16T09:24:00.995Z,2.23
2019-05-16T09:26:33.734Z,2.13
2019-05-16T09:29:08.246Z,2.00
2019-05-16T09:31:40.717Z,2.50
2019-05-16T09:34:13.295Z,2.07
2019-05-16T09:36:48.153Z,1.87
2019-05-16T09:39:20.342Z,1.90
2019-05-16T09:41:55.595Z,2.00
2019-05-16T09:44:27.339Z,1.50
2019-05-16T09:47:00.328Z,2.20
2019-05-16T09:49:33.015Z,2.90
2019-05-16T09:52:07.497Z,2.30
2019-05-16T09:54:40.609Z,1.93
2019-05-16T09:57:13.779Z,2.07
2019-05-16T09:59:46.644Z,2.00
2019-05-16T10:02:19.159Z,2.17
2019-05-16T10:04:51.501Z,1.80
2019-05-16T10:07:28.016Z,2.30
2019-05-16T10:09:58.513Z,2.10
2019-05-16T10:12:31.823Z,2.07
2019-05-16T10:15:07.264Z,2.90
2019-05-16T10:17:38.532Z,1.93
2019-05-16T10:20:13.069Z,2.10
2019-05-16T10:22:50.257Z,2.30
2019-05-16T10:25:21.855Z,2.67
2019-05-16T10:27:54.685Z,2.20
2019-05-16T10:30:27.281Z,3.30
2019-05-16T10:33:01.004Z,3.40
2019-05-16T10:35:36.992Z,2.57
2019-05-16T10:38:08.310Z,4.00
2019-05-16T10:40:41.050Z,3.67
2019-05-16T10:43:13.334Z,3.20
2019-05-16T10:45:46.762Z,3.33
2019-05-16T10:48:19.051Z,2.63
2019-05-16T10:50:51.917Z,4.00
2019-05-16T10:53:52.367Z,3.20
2019-05-16T10:55:58.232Z,2.20
2019-05-16T10:58:37.248Z,2.67
2019-05-16T11:01:21.031Z,2.60
2019-05-16T11:03:39.275Z,2.53
2019-05-16T11:06:24.766Z,2.87
2019-05-16T11:08:46.672Z,2.60
2019-05-16T11:11:20.013Z,2.27
2019-05-16T11:13:52.914Z,15.87
2019-05-16T11:16:27.508Z,8.03
2019-05-16T11:19:14.451Z,4.00
2019-05-16T11:21:37.532Z,2.63
2019-05-16T11:24:12.676Z,2.43
2019-05-16T11:26:44.068Z,2.30
2019-05-16T11:29:16.809Z,2.20
2019-05-16T11:31:49.106Z,2.33
2019-05-16T11:34:21.490Z,1.63
2019-05-16T11:36:56.884Z,1.70
2019-05-16T11:39:28.801Z,1.40
2019-05-16T11:42:01.080Z,1.73
2019-05-16T11:44:33.473Z,1.47
2019-05-16T11:47:08.269Z,1.83
2019-05-16T11:49:39.905Z,1.40
2019-05-16T11:52:12.181Z,1.43
2019-05-16T11:54:46.772Z,1.40
2019-05-16T11:57:18.474Z,1.40
2019-05-16T11:59:50.760Z,1.30
2019-05-16T12:02:24.226Z,1.40
2019-05-16T12:04:57.876Z,1.30
2019-05-16T12:07:33.551Z,1.60
2019-05-16T12:10:07.372Z,2.00
2019-05-16T12:12:39.046Z,1.57
2019-05-16T12:15:12.139Z,1.57
2019-05-16T12:17:59.057Z,1.53
2019-05-16T12:20:19.408Z,0.90
2019-05-16T12:22:52.159Z,1.60
2019-05-16T12:25:24.498Z,1.40
2019-05-16T12:27:56.969Z,1.43
2019-05-16T12:30:29.938Z,1.10
2019-05-16T12:33:02.314Z,1.10
2019-05-16T12:35:36.881Z,1.30
2019-05-16T12:38:09.016Z,0.80
2019-05-16T12:40:41.305Z,0.90
2019-05-16T12:43:14.699Z,1.17
2019-05-16T12:45:47.602Z,1.30
2019-05-16T12:48:20.509Z,1.33
2019-05-16T12:50:52.944Z,1.60
2019-05-16T12:53:31.679Z,1.30
2019-05-16T12:55:59.457Z,1.13
2019-05-16T12:58:37.696Z,1.50
2019-05-16T13:01:07.743Z,1.30
2019-05-16T13:03:40.063Z,2.10
2019-05-16T13:06:12.343Z,1.90
2019-05-16T13:08:46.844Z,1.90
2019-05-16T13:11:19.120Z,1.70
2019-05-16T13:14:03.411Z,1.90
2019-05-16T13:16:28.083Z,1.80
2019-05-16T13:19:00.546Z,2.20
2019-05-16T13:21:33.477Z,1.50
2019-05-16T13:24:06.913Z,1.57
2019-05-16T13:26:39.493Z,1.60
2019-05-16T13:29:12.698Z,1.50
2019-05-16T13:31:47.641Z,1.33
2019-05-16T13:34:18.996Z,1.20
2019-05-16T13:36:52.258Z,1.27
2019-05-16T13:39:27.466Z,1.60
2019-05-16T13:41:59.265Z,1.40
2019-05-16T13:44:31.379Z,1.10
2019-05-16T13:47:03.651Z,1.40
2019-05-16T13:49:38.611Z,2.00
2019-05-16T13:52:10.643Z,1.50
2019-05-16T13:54:42.773Z,1.00
2019-05-16T13:57:17.123Z,0.80
2019-05-16T13:59:49.388Z,1.87
2019-05-16T14:02:21.519Z,1.30
2019-05-16T14:04:56.444Z,1.30
2019-05-16T14:07:29.131Z,0.93
2019-05-16T14:10:01.600Z,0.90
2019-05-16T14:12:36.722Z,0.60
2019-05-16T14:15:10.448Z,0.80
2019-05-16T14:17:42.584Z,0.50
2019-05-16T14:20:18.196Z,0.90
2019-05-16T14:22:49.945Z,0.80
2019-05-16T14:25:22.674Z,0.70
2019-05-16T14:27:56.828Z,0.60
2019-05-16T14:30:29.320Z,1.00
2019-05-16T14:33:02.874Z,0.80
2019-05-16T14:35:37.403Z,0.97
2019-05-16T14:38:08.999Z,0.70
2019-05-16T14:40:41.575Z,0.60
2019-05-16T14:43:14.319Z,0.73
2019-05-16T14:45:47.534Z,0.83
2019-05-16T14:48:19.666Z,0.80
2019-05-16T14:50:52.163Z,0.80
2019-05-16T14:53:28.202Z,0.90
2019-05-16T14:55:59.040Z,0.70
2019-05-16T14:58:32.547Z,0.97
2019-05-16T15:01:07.334Z,0.97
2019-05-16T15:03:39.731Z,1.27
2019-05-16T15:06:11.966Z,1.00
2019-05-16T15:08:44.100Z,1.10
2019-05-16T15:11:17.995Z,1.00
2019-05-16T15:13:50.660Z,0.80
2019-05-16T15:16:23.118Z,1.00
2019-05-16T15:18:57.544Z,0.83
2019-05-16T15:21:29.394Z,0.90
2019-05-16T15:24:01.612Z,0.83
2019-05-16T15:26:33.786Z,1.10
2019-05-16T15:29:08.119Z,0.90
2019-05-16T15:31:40.924Z,0.60
2019-05-16T15:34:13.720Z,0.97
2019-05-16T15:36:46.697Z,0.80
2019-05-16T15:39:19.552Z,0.80
2019-05-16T15:41:52.579Z,0.90
2019-05-16T15:44:27.199Z,0.80
2019-05-16T15:47:00.141Z,0.70
2019-05-16T15:49:33.073Z,0.80
2019-05-16T15:52:07.335Z,0.90
2019-05-16T15:54:42.058Z,0.90
2019-05-16T15:57:17.445Z,1.10
2019-05-16T15:59:49.188Z,1.33
2019-05-16T16:02:21.979Z,0.90
2019-05-16T16:04:54.454Z,1.40
2019-05-16T16:07:27.353Z,1.13
2019-05-16T16:10:00.441Z,1.57
2019-05-16T16:12:33.031Z,1.80
2019-05-16T16:15:07.574Z,1.13
2019-05-16T16:17:40.666Z,1.63
2019-05-16T16:20:12.988Z,2.10
2019-05-16T16:22:46.900Z,1.60
2019-05-16T16:25:19.870Z,1.97
2019-05-16T16:27:51.986Z,1.50
2019-05-16T16:30:24.627Z,1.70
2019-05-16T16:32:57.661Z,1.40
2019-05-16T16:35:31.309Z,1.83
2019-05-16T16:38:03.514Z,2.20
2019-05-16T16:40:37.485Z,2.30
2019-05-16T16:43:09.776Z,2.00
2019-05-16T16:45:42.443Z,1.77
2019-05-16T16:48:17.221Z,1.90
2019-05-16T16:50:49.938Z,2.30
2019-05-16T16:53:22.945Z,2.27
2019-05-16T16:55:56.866Z,2.30
2019-05-16T16:58:29.642Z,1.93
2019-05-16T17:01:01.887Z,2.87
2019-05-16T17:03:36.394Z,2.67
2019-05-16T17:06:08.702Z,2.40
2019-05-16T17:08:41.279Z,2.83
2019-05-16T17:11:13.862Z,2.50
2019-05-16T17:13:47.293Z,2.77
2019-05-16T17:16:25.795Z,3.03
2019-05-16T17:18:56.747Z,2.07
2019-05-16T17:21:28.168Z,2.20
2019-05-16T17:24:00.877Z,3.13
2019-05-16T17:26:33.531Z,1.83
2019-05-16T17:29:06.508Z,2.47
2019-05-16T17:31:39.920Z,2.63
2019-05-16T17:34:12.583Z,2.63
2019-05-16T17:36:46.605Z,3.00
2019-05-16T17:39:18.811Z,2.90
2019-05-16T17:41:54.742Z,3.77
2019-05-16T17:44:27.246Z,3.23
2019-05-16T17:47:00.342Z,3.50
2019-05-16T17:49:32.913Z,3.30
2019-05-16T17:52:06.971Z,3.13
2019-05-16T17:54:39.228Z,3.37
2019-05-16T17:57:11.693Z,3.07
2019-05-16T17:59:43.812Z,3.30
2019-05-16T18:02:17.286Z,2.90
2019-05-16T18:04:49.521Z,3.70
2019-05-16T18:07:21.639Z,2.80
2019-05-16T18:09:56.627Z,2.77
2019-05-16T18:12:28.530Z,4.27
2019-05-16T18:15:00.997Z,4.20
2019-05-16T18:17:33.577Z,3.87
2019-05-16T18:20:06.673Z,3.60
2019-05-16T18:22:39.924Z,4.60
2019-05-16T18:25:13.241Z,4.53
2019-05-16T18:27:45.483Z,4.40
2019-05-16T18:30:19.717Z,4.87
2019-05-16T18:32:52.422Z,4.70
2019-05-16T18:35:24.550Z,4.43
2019-05-16T18:37:58.376Z,4.83
2019-05-16T18:40:30.498Z,3.73
2019-05-16T18:43:02.629Z,3.73
2019-05-16T18:45:36.681Z,4.23
2019-05-16T18:48:09.044Z,3.50
2019-05-16T18:50:41.615Z,4.90
2019-05-16T18:53:14.074Z,4.67
2019-05-16T18:55:47.091Z,4.90
2019-05-16T18:58:20.107Z,4.20
2019-05-16T19:00:52.558Z,4.30
2019-05-16T19:03:27.019Z,3.00
2019-05-16T19:06:00.168Z,2.70
2019-05-16T19:08:33.623Z,4.13
2019-05-16T19:11:07.538Z,4.10
2019-05-16T19:13:40.275Z,4.80
2019-05-16T19:16:12.932Z,4.83
2019-05-16T19:18:46.170Z,4.57
2019-05-16T19:21:19.299Z,3.20
2019-05-16T19:23:51.759Z,4.63
2019-05-16T19:26:27.292Z,3.40
2019-05-16T19:28:59.421Z,3.60
2019-05-16T19:31:32.237Z,3.63
2019-05-16T19:34:06.984Z,4.07
2019-05-16T19:36:39.357Z,3.27
2019-05-16T19:39:12.167Z,3.77
2019-05-16T19:41:46.481Z,5.07
2019-05-16T19:44:18.571Z,4.87
2019-05-16T19:46:50.747Z,4.20
2019-05-16T19:49:23.663Z,3.70
2019-05-16T19:51:56.685Z,4.37
2019-05-16T19:54:29.368Z,5.50
2019-05-16T19:57:02.188Z,3.60
2019-05-16T19:59:36.577Z,5.23
2019-05-16T20:02:08.980Z,5.03
2019-05-16T20:04:41.206Z,6.00
2019-05-16T20:07:16.652Z,4.23
2019-05-16T20:09:48.214Z,5.40
2019-05-16T20:12:21.106Z,4.20
2019-05-16T20:15:06.865Z,6.03
2019-05-16T20:17:27.666Z,5.30
2019-05-16T20:19:59.785Z,5.30
2019-05-16T20:22:32.472Z,5.20
2019-05-16T20:25:05.184Z,6.50
2019-05-16T20:27:37.736Z,7.00
2019-05-16T20:30:13.558Z,6.10
2019-05-16T20:32:45.687Z,4.67
2019-05-16T20:35:18.805Z,4.37
2019-05-16T20:37:51.591Z,6.03
2019-05-16T20:40:23.819Z,6.57
2019-05-16T20:42:59.349Z,6.97
2019-05-16T20:45:30.207Z,5.93
2019-05-16T20:48:10.809Z,6.43
2019-05-16T20:50:37.189Z,6.10
2019-05-16T20:53:11.252Z,7.33
2019-05-16T20:55:46.420Z,7.50
2019-05-16T20:58:18.678Z,6.77
2019-05-16T21:00:51.891Z,7.70
2019-05-16T21:03:26.903Z,6.40
2019-05-16T21:05:58.842Z,7.77
2019-05-16T21:08:31.007Z,7.13
2019-05-16T21:11:03.137Z,7.20
2019-05-16T21:13:35.584Z,7.03
2019-05-16T21:16:08.164Z,8.83
2019-05-16T21:18:40.282Z,8.80
2019-05-16T21:21:12.861Z,9.00
2019-05-16T21:23:47.010Z,8.60
2019-05-16T21:26:19.778Z,8.30
2019-05-16T21:28:52.570Z,9.23
2019-05-16T21:31:27.341Z,8.90
2019-05-16T21:33:58.507Z,6.60
2019-05-16T21:36:31.117Z,7.00
2019-05-16T21:39:06.431Z,8.60
2019-05-16T21:41:38.647Z,9.37
2019-05-16T21:44:11.878Z,8.73
2019-05-16T21:46:46.810Z,8.90
2019-05-16T21:49:19.728Z,9.23
2019-05-16T21:51:52.369Z,8.97
2019-05-16T21:54:28.604Z,8.73
2019-05-16T21:56:58.863Z,9.47
2019-05-16T21:59:31.773Z,9.70
2019-05-16T22:02:05.073Z,7.67
2019-05-16T22:04:37.833Z,9.37
2019-05-16T22:07:11.069Z,7.97
2019-05-16T22:09:43.638Z,9.53
2019-05-16T22:12:17.380Z,8.40
2019-05-16T22:14:53.663Z,7.53
2019-05-16T22:17:27.530Z,8.70
2019-05-16T22:20:00.378Z,8.23
2019-05-16T22:22:33.166Z,8.87
2019-05-16T22:25:07.627Z,9.70
2019-05-16T22:27:40.309Z,9.23
2019-05-16T22:30:17.437Z,9.97
2019-05-16T22:32:49.955Z,9.60
2019-05-16T22:35:22.664Z,8.97
2019-05-16T22:37:59.072Z,9.23
2019-05-16T22:40:33.190Z,10.37
2019-05-16T22:43:09.721Z,8.27
2019-05-16T22:45:38.210Z,7.90
2019-05-16T22:48:10.351Z,8.83
2019-05-16T22:50:42.466Z,6.93
2019-05-16T22:53:17.279Z,9.43
2019-05-16T22:55:48.943Z,9.70
2019-05-16T22:58:21.200Z,10.90
2019-05-16T23:00:53.530Z,9.93
2019-05-16T23:03:26.819Z,10.03
2019-05-16T23:05:59.257Z,10.10
2019-05-16T23:08:31.411Z,9.93
2019-05-16T23:11:03.663Z,11.17
2019-05-16T23:13:35.830Z,9.07
2019-05-16T23:16:08.529Z,10.20
2019-05-16T23:18:40.816Z,10.97
2019-05-16T23:21:13.102Z,10.43
2019-05-16T23:23:46.501Z,11.23
2019-05-16T23:26:18.871Z,10.93
2019-05-16T23:28:51.149Z,11.70
2019-05-16T23:31:23.874Z,10.50
2019-05-16T23:33:56.582Z,10.07
2019-05-16T23:36:29.085Z,9.87
2019-05-16T23:39:01.552Z,9.27
2019-05-16T23:41:33.678Z,9.27
2019-05-16T23:44:07.461Z,9.47
2019-05-16T23:46:40.180Z,10.77
2019-05-16T23:49:12.379Z,9.63
2019-05-16T23:51:44.503Z,9.40
2019-05-16T23:54:17.352Z,8.50
2019-05-16T23:56:49.690Z,10.10
2019-05-16T23:59:21.848Z,9.00
